Time;durP1;ratioP1;P1;durP2;ratioP2;P2;SDS_P1;SDS_P2;PMS_P1;PMS_P2;Temp;Humidity;BMP_temperature;BMP_pressure;BME280_temperature;BME280_humidity;BME280_pressure;Samples;Min_cycle;Max_cycle;Signal;HPM_P1;HPM_P2
2023/03/07 00:01:07;;;;;;;26.42;14.88;;;6.50;67.90;;;;;;4924961;29;20240;-64
2023/03/07 00:03:45;;;;;;;27.65;15.65;;;6.50;67.80;;;;;;4925431;29;20619;-64
2023/03/07 00:06:16;;;;;;;26.77;14.90;;;6.40;67.80;;;;;;4924400;29;20222;-64
2023/03/07 00:08:53;;;;;;;22.67;14.57;;;6.40;67.90;;;;;;4926123;29;20541;-65
2023/03/07 00:11:22;;;;;;;24.27;14.52;;;6.40;67.80;;;;;;4923183;29;20235;-65
2023/03/07 00:13:55;;;;;;;26.00;15.20;;;6.40;67.90;;;;;;4925099;29;20223;-65
2023/03/07 00:16:26;;;;;;;30.05;16.58;;;6.40;67.90;;;;;;4925262;29;20294;-65
2023/03/07 00:18:55;;;;;;;29.55;16.40;;;6.30;67.90;;;;;;4926076;29;20230;-65
2023/03/07 00:21:36;;;;;;;28.95;15.88;;;6.30;67.90;;;;;;4927780;29;20561;-64
2023/03/07 00:24:22;;;;;;;25.40;15.20;;;6.30;68.00;;;;;;4926371;29;20214;-64
2023/03/07 00:26:55;;;;;;;30.83;16.67;;;6.30;68.00;;;;;;4930113;29;20298;-65
2023/03/07 00:29:30;;;;;;;28.02;15.10;;;6.30;67.90;;;;;;4913588;29;20293;-65
2023/03/07 00:32:01;;;;;;;28.75;15.63;;;6.20;68.00;;;;;;4920879;29;20257;-64
2023/03/07 00:34:32;;;;;;;24.88;15.07;;;6.20;68.00;;;;;;4924481;29;20217;-64
2023/03/07 00:37:01;;;;;;;27.05;16.25;;;6.20;68.00;;;;;;4928661;29;20226;-65
2023/03/07 00:39:38;;;;;;;27.17;16.02;;;6.20;68.10;;;;;;4925868;29;20209;-64
2023/03/07 00:42:20;;;;;;;28.27;16.10;;;6.30;68.10;;;;;;4924439;29;20206;-65
2023/03/07 00:44:55;;;;;;;27.33;15.75;;;6.30;68.10;;;;;;4926011;29;20313;-64
2023/03/07 00:47:26;;;;;;;24.40;15.00;;;6.30;68.10;;;;;;4925042;29;20216;-65
2023/03/07 00:49:57;;;;;;;28.20;16.23;;;6.30;68.10;;;;;;4926010;29;20215;-66
2023/03/07 00:52:31;;;;;;;29.45;15.20;;;6.30;68.10;;;;;;4924412;29;20222;-65
2023/03/07 00:55:03;;;;;;;26.15;15.70;;;6.30;68.20;;;;;;4929729;29;20227;-65
2023/03/07 01:00:31;;;;;;;27.50;15.82;;;6.30;68.10;;;;;;4924676;29;20248;-65
2023/03/07 01:03:03;;;;;;;27.48;16.30;;;6.20;68.10;;;;;;4912268;29;20223;-64
2023/03/07 01:06:45;;;;;;;30.55;16.15;;;6.20;68.20;;;;;;4926901;29;20230;-65
2023/03/07 01:09:18;;;;;;;31.92;15.90;;;6.20;68.20;;;;;;4923189;29;20201;-64
2023/03/07 01:11:52;;;;;;;27.85;17.08;;;6.20;68.10;;;;;;4907895;29;20849;-65
2023/03/07 01:14:22;;;;;;;29.90;16.17;;;6.20;68.10;;;;;;4910084;29;20224;-65
2023/03/07 01:17:07;;;;;;;28.17;16.88;;;6.10;68.20;;;;;;4927180;29;20643;-64
2023/03/07 01:19:39;;;;;;;29.77;16.52;;;6.20;68.20;;;;;;4922621;29;20297;-65
2023/03/07 01:22:12;;;;;;;28.15;15.13;;;6.10;68.20;;;;;;4925257;29;20675;-64
2023/03/07 01:24:45;;;;;;;31.25;17.55;;;6.10;68.30;;;;;;4916013;29;20226;-64
2023/03/07 01:27:31;;;;;;;31.25;17.70;;;6.10;68.50;;;;;;4925200;29;20209;-64
2023/03/07 01:30:02;;;;;;;30.10;17.23;;;6.10;68.60;;;;;;4926336;29;20256;-64
2023/03/07 01:32:42;;;;;;;35.63;17.48;;;6.10;68.60;;;;;;4924440;29;20241;-64
2023/03/07 01:35:17;;;;;;;32.80;17.88;;;6.10;68.70;;;;;;4927989;29;20227;-65
2023/03/07 01:37:48;;;;;;;33.55;17.98;;;6.10;68.80;;;;;;4927242;29;20282;-64
2023/03/07 01:40:20;;;;;;;32.60;17.15;;;6.00;69.00;;;;;;4926262;29;20319;-65
2023/03/07 01:43:03;;;;;;;31.58;17.92;;;6.00;69.00;;;;;;4908687;29;20197;-65
2023/03/07 01:46:09;;;;;;;30.95;17.33;;;6.00;69.00;;;;;;4915362;29;20617;-64
2023/03/07 01:48:49;;;;;;;28.83;16.20;;;5.90;69.20;;;;;;4927305;29;20608;-64
2023/03/07 01:51:21;;;;;;;34.20;17.98;;;5.90;69.20;;;;;;4907528;29;20359;-65
2023/03/07 01:54:04;;;;;;;30.40;17.75;;;5.90;69.30;;;;;;4926964;29;20229;-64
2023/03/07 01:56:45;;;;;;;29.58;17.38;;;6.00;69.10;;;;;;4924273;29;20239;-64
2023/03/07 01:59:34;;;;;;;31.30;16.95;;;6.00;69.20;;;;;;4925298;29;20211;-64
2023/03/07 02:02:10;;;;;;;28.17;15.73;;;6.00;69.30;;;;;;4924335;29;20229;-65
2023/03/07 02:04:54;;;;;;;27.52;16.65;;;5.90;69.20;;;;;;4926697;29;20215;-65
2023/03/07 02:07:34;;;;;;;29.42;16.90;;;5.90;69.20;;;;;;4914936;29;20204;-65
2023/03/07 02:10:09;;;;;;;34.42;17.08;;;5.80;69.20;;;;;;4925338;29;20338;-64
2023/03/07 02:12:45;;;;;;;27.25;16.33;;;5.80;69.30;;;;;;4921682;29;20230;-64
2023/03/07 02:15:23;;;;;;;29.05;16.17;;;5.80;69.30;;;;;;4925615;29;20202;-65
2023/03/07 02:17:52;;;;;;;33.42;17.88;;;5.80;69.40;;;;;;4927841;29;20551;-65
2023/03/07 02:20:39;;;;;;;28.30;17.58;;;5.70;69.40;;;;;;4911681;29;20242;-64
2023/03/07 02:23:24;;;;;;;28.38;17.10;;;5.70;69.50;;;;;;4928277;29;20261;-64
2023/03/07 02:26:02;;;;;;;28.88;15.73;;;5.70;69.60;;;;;;4923623;29;20343;-64
2023/03/07 02:28:41;;;;;;;27.80;16.13;;;5.70;69.60;;;;;;4925865;29;20646;-65
2023/03/07 02:31:21;;;;;;;30.75;16.92;;;5.70;69.60;;;;;;4908168;29;20584;-65
2023/03/07 02:33:55;;;;;;;33.15;18.10;;;5.70;69.70;;;;;;4923942;29;20232;-64
2023/03/07 02:36:35;;;;;;;29.98;17.30;;;5.70;69.90;;;;;;4917363;29;20211;-64
2023/03/07 02:39:20;;;;;;;30.58;16.98;;;5.70;70.10;;;;;;4924104;29;20221;-64
2023/03/07 02:42:07;;;;;;;29.60;16.85;;;5.60;70.10;;;;;;4922508;29;20213;-65
2023/03/07 02:44:57;;;;;;;29.38;16.55;;;5.70;70.30;;;;;;4922048;29;20267;-64
2023/03/07 02:47:33;;;;;;;31.92;16.50;;;5.70;70.30;;;;;;4927573;29;20965;-64
2023/03/07 02:50:08;;;;;;;28.63;16.30;;;5.70;70.40;;;;;;4925394;29;20243;-65
2023/03/07 02:52:51;;;;;;;30.05;17.15;;;5.70;70.50;;;;;;4925627;29;20252;-65
2023/03/07 02:55:27;;;;;;;27.77;17.33;;;5.70;70.60;;;;;;4921523;29;20242;-65
2023/03/07 02:58:15;;;;;;;32.53;16.20;;;5.70;70.50;;;;;;4923466;29;20290;-64
2023/03/07 03:00:55;;;;;;;32.42;17.70;;;5.70;70.70;;;;;;4924467;29;20240;-65
2023/03/07 03:03:28;;;;;;;27.95;16.20;;;5.70;70.70;;;;;;4925274;29;20298;-64
2023/03/07 03:06:15;;;;;;;32.13;16.42;;;5.60;70.70;;;;;;4928603;29;20288;-64
2023/03/07 03:08:55;;;;;;;27.85;16.85;;;5.70;70.80;;;;;;4926551;29;20657;-65
2023/03/07 03:11:25;;;;;;;29.75;16.13;;;5.60;71.00;;;;;;4921479;29;20269;-65
2023/03/07 03:14:00;;;;;;;32.90;16.92;;;5.70;70.90;;;;;;4923050;29;20322;-65
2023/03/07 03:16:36;;;;;;;29.55;16.60;;;5.70;71.00;;;;;;4923754;29;20264;-64
2023/03/07 03:19:07;;;;;;;30.83;17.75;;;5.70;71.10;;;;;;4914380;29;20214;-64
2023/03/07 03:21:44;;;;;;;29.83;16.65;;;5.70;71.10;;;;;;4922276;29;20205;-65
2023/03/07 03:24:18;;;;;;;27.10;16.45;;;5.70;71.00;;;;;;4926287;29;20226;-64
2023/03/07 03:26:51;;;;;;;34.13;15.75;;;5.70;71.20;;;;;;4922575;29;20216;-65
2023/03/07 03:29:28;;;;;;;29.80;16.33;;;5.70;71.20;;;;;;4923666;29;20208;-65
2023/03/07 03:32:18;;;;;;;26.58;15.68;;;5.60;71.40;;;;;;4923430;29;20231;-65
2023/03/07 03:34:57;;;;;;;25.77;15.75;;;5.70;71.40;;;;;;4923075;29;20291;-64
2023/03/07 03:37:26;;;;;;;25.83;15.00;;;5.70;71.30;;;;;;4924984;29;20213;-65
2023/03/07 03:39:56;;;;;;;27.98;16.17;;;5.60;71.40;;;;;;4916572;29;20341;-65
2023/03/07 03:42:28;;;;;;;26.67;16.27;;;5.60;71.60;;;;;;4906410;29;20205;-65
2023/03/07 03:45:01;;;;;;;24.30;15.20;;;5.50;71.80;;;;;;4906556;29;20329;-64
2023/03/07 03:47:52;;;;;;;23.45;14.35;;;5.60;71.80;;;;;;4922650;29;20291;-64
2023/03/07 03:50:28;;;;;;;29.13;15.85;;;5.60;72.00;;;;;;4910006;29;20202;-64
2023/03/07 03:53:06;;;;;;;28.98;16.10;;;5.60;72.10;;;;;;4922986;29;20242;-64
2023/03/07 03:55:37;;;;;;;24.38;14.63;;;5.60;72.00;;;;;;4922938;29;20213;-64
2023/03/07 03:58:13;;;;;;;25.95;15.00;;;5.50;72.20;;;;;;4919986;29;20222;-65
2023/03/07 04:00:46;;;;;;;26.85;15.02;;;5.50;72.10;;;;;;4921132;29;20246;-65
2023/03/07 04:03:28;;;;;;;26.27;15.70;;;5.50;72.30;;;;;;4926714;29;20774;-65
2023/03/07 04:06:11;;;;;;;23.35;13.85;;;5.50;72.40;;;;;;4923576;29;20208;-65
2023/03/07 04:08:43;;;;;;;24.10;15.20;;;5.50;72.50;;;;;;4927078;29;20447;-65
2023/03/07 04:11:31;;;;;;;23.23;13.73;;;5.50;72.50;;;;;;4926070;29;20215;-64
2023/03/07 04:14:05;;;;;;;23.42;13.82;;;5.50;72.70;;;;;;4928154;29;20224;-65
2023/03/07 04:16:40;;;;;;;20.50;12.70;;;5.40;72.90;;;;;;4929094;29;20208;-65
2023/03/07 04:19:31;;;;;;;23.30;13.55;;;5.50;72.80;;;;;;4917585;29;20212;-65
2023/03/07 04:22:11;;;;;;;20.65;12.75;;;5.50;72.90;;;;;;4928765;29;20212;-64
2023/03/07 04:24:53;;;;;;;22.45;12.95;;;5.50;73.00;;;;;;4923954;29;20265;-64
2023/03/07 04:27:32;;;;;;;23.52;12.95;;;5.50;73.10;;;;;;4926594;29;20205;-64
2023/03/07 04:30:04;;;;;;;17.73;12.30;;;5.50;73.00;;;;;;4925385;29;20242;-65
2023/03/07 04:32:36;;;;;;;21.25;13.07;;;5.40;73.10;;;;;;4929064;29;20234;-65
2023/03/07 04:35:26;;;;;;;19.63;12.18;;;5.40;73.30;;;;;;4912189;29;20664;-65
2023/03/07 04:38:01;;;;;;;19.70;11.93;;;5.40;73.30;;;;;;4924072;29;20303;-65
2023/03/07 04:40:39;;;;;;;19.48;11.40;;;5.40;73.20;;;;;;4926632;29;20550;-65
2023/03/07 04:43:16;;;;;;;18.42;11.55;;;5.40;73.40;;;;;;4925616;29;20228;-64
2023/03/07 04:45:49;;;;;;;18.92;11.70;;;5.40;73.40;;;;;;4925300;29;20216;-65
2023/03/07 04:48:25;;;;;;;18.80;11.38;;;5.40;73.50;;;;;;4927447;29;20599;-64
2023/03/07 04:50:59;;;;;;;20.85;12.00;;;5.40;73.60;;;;;;4927605;29;20215;-65
2023/03/07 04:53:31;;;;;;;16.95;10.90;;;5.40;73.70;;;;;;4926328;29;20232;-65
2023/03/07 04:56:02;;;;;;;18.50;11.40;;;5.30;73.80;;;;;;4919191;29;20621;-64
2023/03/07 04:58:50;;;;;;;19.60;11.63;;;5.40;73.70;;;;;;4927361;29;20220;-65
2023/03/07 05:01:28;;;;;;;21.50;12.68;;;5.40;73.80;;;;;;4927120;29;20264;-65
2023/03/07 05:04:00;;;;;;;20.42;11.43;;;5.40;73.70;;;;;;4926924;29;20208;-65
2023/03/07 05:06:35;;;;;;;20.70;12.32;;;5.40;73.90;;;;;;4929014;29;20536;-64
2023/03/07 05:09:07;;;;;;;22.50;12.65;;;5.40;73.90;;;;;;4927805;29;20212;-64
2023/03/07 05:11:45;;;;;;;20.27;13.18;;;5.40;73.90;;;;;;4924451;29;20678;-65
2023/03/07 05:14:16;;;;;;;20.35;11.02;;;5.50;73.90;;;;;;4927332;29;20224;-65
2023/03/07 05:16:45;;;;;;;23.77;13.20;;;5.50;74.00;;;;;;4924808;29;20248;-65
2023/03/07 05:19:24;;;;;;;21.25;13.65;;;5.40;74.00;;;;;;4922766;29;20227;-64
2023/03/07 05:21:55;;;;;;;22.80;15.00;;;5.40;74.00;;;;;;4925307;29;20212;-64
2023/03/07 05:24:31;;;;;;;21.10;13.25;;;5.50;74.10;;;;;;4924201;29;20197;-64
2023/03/07 05:32:29;;;;;;;21.70;13.85;;;5.50;74.20;;;;;;4907042;29;20242;-65
2023/03/07 05:35:04;;;;;;;28.83;16.52;;;5.40;74.30;;;;;;4925985;29;20870;-65
2023/03/07 05:37:39;;;;;;;24.40;16.33;;;5.50;74.20;;;;;;4926341;29;20463;-64
2023/03/07 05:40:16;;;;;;;29.98;16.70;;;5.50;74.30;;;;;;4925346;29;20213;-64
2023/03/07 05:42:50;;;;;;;27.70;17.35;;;5.40;74.60;;;;;;4925610;29;20233;-65
2023/03/07 05:45:25;;;;;;;32.80;18.02;;;5.40;74.60;;;;;;4920308;29;20273;-64
2023/03/07 05:48:00;;;;;;;30.13;17.92;;;5.40;74.70;;;;;;4923442;29;20641;-64
2023/03/07 05:50:40;;;;;;;27.35;18.15;;;5.50;74.70;;;;;;4921927;29;20232;-65
2023/03/07 05:53:19;;;;;;;29.77;18.10;;;5.50;74.70;;;;;;4922871;29;20218;-64
2023/03/07 05:55:52;;;;;;;30.05;18.48;;;5.50;74.70;;;;;;4924615;29;20233;-65
2023/03/07 05:58:23;;;;;;;31.27;19.75;;;5.60;74.70;;;;;;4924593;29;20335;-64
2023/03/07 06:00:54;;;;;;;33.13;18.88;;;5.60;74.60;;;;;;4915170;29;20243;-65
2023/03/07 06:03:34;;;;;;;30.65;18.42;;;5.60;74.70;;;;;;4922282;29;20792;-64
2023/03/07 06:06:05;;;;;;;32.38;20.67;;;5.60;74.80;;;;;;4926692;29;20277;-64
2023/03/07 06:08:51;;;;;;;35.38;19.58;;;5.60;74.80;;;;;;4928329;29;20205;-66
2023/03/07 06:11:25;;;;;;;34.33;20.40;;;5.60;74.60;;;;;;4924324;29;20218;-64
2023/03/07 06:13:55;;;;;;;35.25;20.70;;;5.60;74.70;;;;;;4924456;29;20214;-64
2023/03/07 06:16:34;;;;;;;32.80;19.92;;;5.60;74.70;;;;;;4922175;29;20213;-64
2023/03/07 06:19:04;;;;;;;37.63;21.55;;;5.60;74.70;;;;;;4923272;29;20220;-64
2023/03/07 06:21:41;;;;;;;37.33;22.08;;;5.70;74.80;;;;;;4923957;29;20226;-65
2023/03/07 06:24:21;;;;;;;35.45;20.50;;;5.70;74.80;;;;;;4907132;29;20717;-65
2023/03/07 06:26:55;;;;;;;35.35;21.40;;;5.70;74.70;;;;;;4925183;29;20220;-64
2023/03/07 06:29:30;;;;;;;36.22;20.98;;;5.70;74.80;;;;;;4924791;29;20212;-64
2023/03/07 06:32:05;;;;;;;32.92;20.30;;;5.60;74.70;;;;;;4919569;29;20319;-65
2023/03/07 06:34:39;;;;;;;32.60;19.35;;;5.60;74.70;;;;;;4924911;29;20220;-65
2023/03/07 06:37:09;;;;;;;33.05;19.98;;;5.60;74.80;;;;;;4923454;29;20217;-65
2023/03/07 06:39:44;;;;;;;35.95;20.88;;;5.50;75.00;;;;;;4922484;29;20221;-65
2023/03/07 06:42:17;;;;;;;35.13;20.30;;;5.60;74.90;;;;;;4904265;29;20205;-65
2023/03/07 06:44:55;;;;;;;29.95;18.95;;;5.60;75.00;;;;;;4922425;29;20308;-65
2023/03/07 06:47:30;;;;;;;32.03;20.17;;;5.60;74.90;;;;;;4921734;29;20618;-64
2023/03/07 06:53:05;;;;;;;31.58;18.67;;;5.50;75.00;;;;;;4922386;29;20232;-64
2023/03/07 06:55:48;;;;;;;32.95;19.48;;;5.60;74.90;;;;;;4893981;29;20229;-64
2023/03/07 06:58:24;;;;;;;30.75;19.17;;;5.60;74.90;;;;;;4922303;29;20217;-65
2023/03/07 07:03:43;;;;;;;34.03;18.80;;;5.60;75.00;;;;;;4922543;29;20219;-64
2023/03/07 07:06:19;;;;;;;29.02;18.80;;;5.60;75.00;;;;;;4906578;29;20192;-65
2023/03/07 07:08:56;;;;;;;29.88;18.55;;;5.60;75.00;;;;;;4906963;29;20206;-64
2023/03/07 07:11:38;;;;;;;29.85;17.80;;;5.70;75.00;;;;;;4922595;29;20228;-65
2023/03/07 07:14:14;;;;;;;30.27;18.65;;;5.70;75.00;;;;;;4921914;29;20205;-65
2023/03/07 07:16:47;;;;;;;30.90;18.08;;;5.70;75.00;;;;;;4915452;29;20257;-65
2023/03/07 07:19:25;;;;;;;33.95;19.40;;;5.70;75.00;;;;;;4922453;29;20539;-65
2023/03/07 07:22:00;;;;;;;31.23;17.65;;;5.70;75.00;;;;;;4921916;29;20209;-65
2023/03/07 07:24:44;;;;;;;34.72;17.80;;;5.70;74.80;;;;;;4920683;29;20594;-65
2023/03/07 07:27:19;;;;;;;27.85;16.90;;;5.80;74.90;;;;;;4919445;29;20281;-66
2023/03/07 07:30:01;;;;;;;31.38;18.20;;;5.70;74.90;;;;;;4920855;29;21127;-65
2023/03/07 07:32:32;;;;;;;30.00;16.80;;;5.70;74.90;;;;;;4908193;29;20233;-65
2023/03/07 07:35:08;;;;;;;26.23;16.67;;;5.70;74.90;;;;;;4923568;29;20235;-65
2023/03/07 07:37:39;;;;;;;27.13;16.42;;;5.80;74.90;;;;;;4924276;29;20312;-65
2023/03/07 07:40:15;;;;;;;29.20;17.25;;;5.80;74.80;;;;;;4925514;29;20202;-66
2023/03/07 07:42:58;;;;;;;27.75;15.68;;;5.80;74.90;;;;;;4926925;29;20215;-65
2023/03/07 07:45:48;;;;;;;26.05;14.73;;;5.80;75.00;;;;;;4920100;29;20214;-65
2023/03/07 07:48:23;;;;;;;28.08;16.60;;;5.80;75.10;;;;;;4923932;29;20265;-66
2023/03/07 07:51:02;;;;;;;25.88;14.82;;;5.80;75.10;;;;;;4928355;29;20205;-65
2023/03/07 07:53:34;;;;;;;25.48;14.60;;;5.80;75.20;;;;;;4915764;29;20198;-65
2023/03/07 07:56:15;;;;;;;27.05;15.95;;;5.90;75.10;;;;;;4927962;29;20232;-65
2023/03/07 07:58:50;;;;;;;24.45;14.20;;;5.90;75.10;;;;;;4928618;29;20282;-65
2023/03/07 08:01:25;;;;;;;22.83;13.60;;;6.00;75.10;;;;;;4905595;29;20233;-65
2023/03/07 08:04:02;;;;;;;25.10;14.73;;;6.00;75.10;;;;;;4927149;29;20210;-65
2023/03/07 08:06:34;;;;;;;25.10;14.32;;;6.10;75.00;;;;;;4926395;29;20275;-66
2023/03/07 08:09:07;;;;;;;22.98;13.38;;;6.10;75.00;;;;;;4925853;29;20280;-67
2023/03/07 08:11:42;;;;;;;26.25;14.02;;;6.10;75.00;;;;;;4924425;29;20531;-66
2023/03/07 08:14:28;;;;;;;28.45;13.80;;;6.20;74.80;;;;;;4927168;29;20228;-65
2023/03/07 08:17:02;;;;;;;22.20;12.43;;;6.20;74.70;;;;;;4925312;29;20328;-66
2023/03/07 08:19:33;;;;;;;27.17;14.32;;;6.10;74.50;;;;;;4923378;29;21016;-65
2023/03/07 08:22:04;;;;;;;23.15;12.60;;;6.10;74.80;;;;;;4927543;29;20198;-66
2023/03/07 08:24:42;;;;;;;21.83;13.35;;;6.10;74.80;;;;;;4927363;29;20625;-65
2023/03/07 08:27:14;;;;;;;23.42;12.85;;;6.20;74.70;;;;;;4929456;29;20320;-65
2023/03/07 08:29:51;;;;;;;23.67;13.00;;;6.20;74.60;;;;;;4932379;29;20209;-65
2023/03/07 08:32:30;;;;;;;23.70;12.63;;;6.10;74.50;;;;;;4925455;29;20295;-65
2023/03/07 08:35:09;;;;;;;25.02;12.98;;;6.20;74.50;;;;;;4928841;29;20244;-65
2023/03/07 08:37:49;;;;;;;20.70;13.02;;;6.20;74.50;;;;;;4927680;29;20215;-65
2023/03/07 08:40:20;;;;;;;23.50;13.15;;;6.20;74.60;;;;;;4929471;29;20214;-65
2023/03/07 08:42:57;;;;;;;22.27;13.77;;;6.30;74.50;;;;;;4926995;29;20222;-66
2023/03/07 08:45:32;;;;;;;22.55;13.45;;;6.30;74.60;;;;;;4928261;29;20207;-66
2023/03/07 08:48:06;;;;;;;22.50;12.63;;;6.40;74.50;;;;;;4925739;29;20206;-65
2023/03/07 08:50:38;;;;;;;21.63;12.95;;;6.40;74.20;;;;;;4925416;29;20302;-65
2023/03/07 08:53:10;;;;;;;19.02;12.07;;;6.40;74.20;;;;;;4926559;29;20227;-65
2023/03/07 08:55:43;;;;;;;26.92;12.50;;;6.50;74.30;;;;;;4927657;29;20230;-65
2023/03/07 08:58:14;;;;;;;19.30;11.50;;;6.40;74.20;;;;;;4914262;29;20222;-65
2023/03/07 09:01:01;;;;;;;24.05;12.82;;;6.40;74.20;;;;;;4924939;29;20248;-65
2023/03/07 09:03:40;;;;;;;21.45;12.38;;;6.50;74.20;;;;;;4923903;29;20549;-65
2023/03/07 09:06:18;;;;;;;24.63;11.52;;;6.50;74.20;;;;;;4925086;29;20204;-65
2023/03/07 09:08:56;;;;;;;18.23;10.93;;;6.50;74.00;;;;;;4930838;29;20215;-65
2023/03/07 09:11:25;;;;;;;21.80;12.63;;;6.60;73.90;;;;;;4928295;29;20816;-65
2023/03/07 09:13:58;;;;;;;18.83;10.95;;;6.70;73.90;;;;;;4926960;29;20249;-65
2023/03/07 09:16:31;;;;;;;20.02;11.63;;;6.70;73.80;;;;;;4925974;29;20235;-65
2023/03/07 09:19:04;;;;;;;21.35;12.18;;;6.70;73.80;;;;;;4925184;29;20208;-65
2023/03/07 09:21:44;;;;;;;19.83;11.85;;;6.80;73.60;;;;;;4925117;29;20665;-65
2023/03/07 09:24:14;;;;;;;18.45;11.20;;;6.80;73.50;;;;;;4928235;29;20217;-65
2023/03/07 09:26:46;;;;;;;23.30;11.82;;;6.80;73.50;;;;;;4925789;29;20230;-66
2023/03/07 09:29:17;;;;;;;25.67;10.85;;;6.80;73.20;;;;;;4928029;29;20213;-65
2023/03/07 09:31:59;;;;;;;22.98;11.50;;;6.90;73.20;;;;;;4926942;29;20234;-65
2023/03/07 09:34:31;;;;;;;20.27;10.82;;;6.90;73.00;;;;;;4922408;29;20264;-65
2023/03/07 09:37:03;;;;;;;17.67;10.40;;;6.90;73.00;;;;;;4927135;29;20313;-65
2023/03/07 09:39:35;;;;;;;17.38;9.55;;;6.90;73.00;;;;;;4929819;29;20708;-65
2023/03/07 09:42:22;;;;;;;19.35;10.60;;;7.00;72.90;;;;;;4929369;29;20703;-65
2023/03/07 09:45:16;;;;;;;18.35;10.18;;;7.00;72.80;;;;;;4916934;29;20210;-65
2023/03/07 09:48:52;;;;;;;16.48;9.07;;;7.00;72.40;;;;;;4921780;29;20207;-65
2023/03/07 09:51:32;;;;;;;13.82;9.48;;;7.10;72.40;;;;;;4924857;29;20213;-65
2023/03/07 09:54:05;;;;;;;14.20;9.15;;;7.10;72.30;;;;;;4926605;29;20635;-65
2023/03/07 09:56:42;;;;;;;15.05;8.98;;;7.20;72.30;;;;;;4927434;29;20245;-65
2023/03/07 09:59:23;;;;;;;16.38;8.70;;;7.20;71.80;;;;;;4928870;29;20223;-65
2023/03/07 10:02:04;;;;;;;15.93;8.85;;;7.20;71.80;;;;;;4924062;29;20230;-65
2023/03/07 10:04:46;;;;;;;14.45;8.57;;;7.20;71.80;;;;;;4922673;29;20266;-66
2023/03/07 10:07:23;;;;;;;14.50;8.95;;;7.20;71.50;;;;;;4921588;29;20531;-66
2023/03/07 10:09:59;;;;;;;15.13;8.40;;;7.20;71.40;;;;;;4927187;29;20666;-65
2023/03/07 10:13:11;;;;;;;19.27;9.20;;;7.30;71.10;;;;;;4928402;29;20210;-65
2023/03/07 10:16:01;;;;;;;13.65;7.88;;;7.20;70.60;;;;;;4927481;29;20948;-65
2023/03/07 10:19:13;;;;;;;15.52;8.05;;;7.30;70.30;;;;;;4920868;29;20227;-65
2023/03/07 10:21:56;;;;;;;15.27;8.60;;;7.30;70.40;;;;;;4921420;29;20727;-68
2023/03/07 10:24:53;;;;;;;14.55;7.28;;;7.30;70.20;;;;;;4922624;29;20230;-66
2023/03/07 10:27:25;;;;;;;18.33;7.80;;;7.30;69.90;;;;;;4921953;29;20310;-65
2023/03/07 10:30:00;;;;;;;15.48;8.55;;;7.20;70.00;;;;;;4925163;29;20218;-65
2023/03/07 10:32:38;;;;;;;15.48;8.40;;;7.20;69.80;;;;;;4918145;29;20477;-65
2023/03/07 10:35:17;;;;;;;19.15;8.85;;;7.20;69.90;;;;;;4925668;29;20865;-66
2023/03/07 10:37:57;;;;;;;15.88;7.60;;;7.20;69.40;;;;;;4925107;29;20224;-65
2023/03/07 10:40:34;;;;;;;13.32;7.93;;;7.30;69.50;;;;;;4922447;29;20223;-66
2023/03/07 10:43:08;;;;;;;16.87;8.73;;;7.40;69.30;;;;;;4925011;29;20239;-67
2023/03/07 10:48:28;;;;;;;13.30;8.60;;;7.50;69.30;;;;;;4923097;29;20287;-66
2023/03/07 10:51:06;;;;;;;16.13;8.63;;;7.60;68.80;;;;;;4921671;29;20958;-65
2023/03/07 10:53:42;;;;;;;13.17;7.10;;;7.60;68.90;;;;;;4923893;29;20535;-65
2023/03/07 10:56:16;;;;;;;14.60;8.23;;;7.70;68.70;;;;;;4923425;29;20482;-66
2023/03/07 10:59:13;;;;;;;16.38;8.63;;;7.70;68.70;;;;;;4927363;29;20758;-66
2023/03/07 11:01:59;;;;;;;12.35;6.90;;;7.80;68.20;;;;;;4921619;29;20243;-66
2023/03/07 11:04:44;;;;;;;13.20;8.30;;;7.80;68.00;;;;;;4922150;29;20219;-65
2023/03/07 11:07:34;;;;;;;20.60;8.98;;;7.80;68.00;;;;;;4923156;29;20945;-65
2023/03/07 11:10:32;;;;;;;13.38;7.60;;;7.90;67.80;;;;;;4925426;29;20791;-65
2023/03/07 11:13:13;;;;;;;12.43;7.80;;;7.90;67.80;;;;;;4924850;29;20235;-65
2023/03/07 11:15:51;;;;;;;16.17;8.13;;;8.00;67.90;;;;;;4924875;29;20214;-66
2023/03/07 11:18:42;;;;;;;14.02;7.80;;;8.10;68.00;;;;;;4923167;29;20490;-66
2023/03/07 11:21:30;;;;;;;14.03;7.90;;;8.20;67.80;;;;;;4924178;29;20555;-65
2023/03/07 11:24:20;;;;;;;13.63;7.30;;;8.30;67.50;;;;;;4925056;29;20469;-66
2023/03/07 11:26:55;;;;;;;13.40;7.43;;;8.30;67.20;;;;;;4924638;29;20460;-65
2023/03/07 11:29:35;;;;;;;12.53;7.20;;;8.30;66.80;;;;;;4924930;29;20775;-65
2023/03/07 11:32:17;;;;;;;13.97;7.63;;;8.30;67.00;;;;;;4920808;29;20538;-65
2023/03/07 11:34:53;;;;;;;21.43;7.93;;;8.40;66.80;;;;;;4923740;29;21018;-65
2023/03/07 11:37:35;;;;;;;13.73;8.37;;;8.40;66.60;;;;;;4924462;29;20507;-66
2023/03/07 11:40:24;;;;;;;13.13;7.40;;;8.40;66.40;;;;;;4926137;29;20963;-65
2023/03/07 11:43:20;;;;;;;11.77;7.13;;;8.40;66.50;;;;;;4924114;29;20452;-65
2023/03/07 11:45:56;;;;;;;12.38;7.07;;;8.40;65.90;;;;;;4924184;29;20794;-65
2023/03/07 11:48:45;;;;;;;14.17;7.87;;;8.30;66.10;;;;;;4909436;29;20624;-65
2023/03/07 11:51:34;;;;;;;13.80;7.77;;;8.30;66.00;;;;;;4926072;29;20494;-65
2023/03/07 11:54:15;;;;;;;14.77;7.40;;;8.20;66.00;;;;;;4923745;29;20459;-66
2023/03/07 11:56:54;;;;;;;12.87;7.00;;;8.20;66.00;;;;;;4923341;29;20463;-65
2023/03/07 12:00:10;;;;;;;14.30;7.23;;;8.20;65.90;;;;;;4924100;29;20919;-65
2023/03/07 12:03:21;;;;;;;12.35;6.90;;;8.20;65.80;;;;;;4885310;29;20549;-65
2023/03/07 12:06:14;;;;;;;14.18;7.90;;;8.10;65.70;;;;;;4889106;29;20553;-65
2023/03/07 12:09:04;;;;;;;13.47;7.57;;;8.20;65.60;;;;;;4885644;29;20432;-66
2023/03/07 12:12:08;;;;;;;24.10;6.63;;;8.20;65.50;;;;;;4870272;29;20494;-66
2023/03/07 12:14:55;;;;;;;13.03;7.10;;;8.20;65.30;;;;;;4886005;29;21248;-66
2023/03/07 12:17:54;;;;;;;11.60;7.17;;;8.20;64.90;;;;;;4885363;29;20497;-66
2023/03/07 12:20:38;;;;;;;11.77;6.93;;;8.20;64.90;;;;;;4884852;29;20476;-65
2023/03/07 12:23:26;;;;;;;12.40;6.70;;;8.10;64.80;;;;;;4866609;29;21019;-65
2023/03/07 12:26:01;;;;;;;13.52;7.18;;;8.10;64.80;;;;;;4883063;29;20475;-66
2023/03/07 12:28:42;;;;;;;13.07;7.87;;;8.10;64.80;;;;;;4888965;29;20304;-66
2023/03/07 12:31:17;;;;;;;11.80;6.90;;;8.10;64.80;;;;;;4890392;29;20488;-66
2023/03/07 12:33:58;;;;;;;14.38;7.97;;;8.10;64.80;;;;;;4900063;29;21381;-66
2023/03/07 12:36:35;;;;;;;12.38;7.53;;;8.10;64.60;;;;;;4924574;29;20217;-66
2023/03/07 12:39:31;;;;;;;12.65;7.35;;;8.10;64.60;;;;;;4926588;29;20309;-66
2023/03/07 12:42:13;;;;;;;14.25;7.53;;;8.10;64.70;;;;;;4918375;29;20764;-66
2023/03/07 12:44:48;;;;;;;12.23;7.00;;;8.10;64.70;;;;;;4928996;29;20231;-65
2023/03/07 12:47:31;;;;;;;16.43;8.80;;;8.20;64.60;;;;;;4928825;29;20459;-65
2023/03/07 12:50:18;;;;;;;13.27;8.20;;;8.30;64.70;;;;;;4925669;29;20853;-66
2023/03/07 12:52:56;;;;;;;11.60;6.77;;;8.30;64.70;;;;;;4908895;29;20564;-66
2023/03/07 12:55:41;;;;;;;15.60;8.20;;;8.30;64.60;;;;;;4923227;29;20478;-66
2023/03/07 12:58:22;;;;;;;18.00;7.37;;;8.30;64.40;;;;;;4925199;29;20501;-66
2023/03/07 13:01:02;;;;;;;12.98;7.35;;;8.30;64.40;;;;;;4927664;29;20824;-66
2023/03/07 13:03:40;;;;;;;12.90;7.40;;;8.30;64.40;;;;;;4927940;29;20280;-65
2023/03/07 13:06:29;;;;;;;14.37;8.80;;;8.30;64.20;;;;;;4923830;29;20279;-67
2023/03/07 13:09:01;;;;;;;13.27;8.17;;;8.30;64.20;;;;;;4922252;29;20464;-65
2023/03/07 13:11:34;;;;;;;12.20;7.27;;;8.30;64.10;;;;;;4925177;29;21010;-65
2023/03/07 13:14:04;;;;;;;12.97;7.90;;;8.40;64.10;;;;;;4925330;29;20472;-67
2023/03/07 13:16:50;;;;;;;14.00;8.17;;;8.30;63.90;;;;;;4927906;29;20471;-69
2023/03/07 13:20:03;;;;;;;14.40;7.50;;;8.40;63.90;;;;;;4925532;29;20489;-66
2023/03/07 13:23:14;;;;;;;14.70;7.93;;;8.30;63.70;;;;;;4921119;29;20466;-66
2023/03/07 13:25:55;;;;;;;14.70;7.30;;;8.30;63.90;;;;;;4923294;29;20456;-66
2023/03/07 13:28:50;;;;;;;13.93;7.23;;;8.30;63.70;;;;;;4926223;29;20475;-71
2023/03/07 13:31:45;;;;;;;12.18;6.50;;;8.30;63.70;;;;;;4925318;29;20480;-65
2023/03/07 13:34:56;;;;;;;12.90;7.60;;;8.30;63.70;;;;;;4925832;29;20599;-66
2023/03/07 13:41:03;;;;;;;12.90;7.50;;;8.50;63.50;;;;;;4921519;29;20534;-66
2023/03/07 13:44:00;;;;;;;15.03;8.40;;;8.50;63.50;;;;;;4924055;29;20475;-66
2023/03/07 13:47:01;;;;;;;14.87;8.13;;;8.60;63.50;;;;;;4914126;29;20474;-66
2023/03/07 13:49:45;;;;;;;13.10;7.70;;;8.60;63.60;;;;;;4921068;29;20887;-65
2023/03/07 13:52:48;;;;;;;16.80;8.30;;;8.70;63.60;;;;;;4920000;29;20556;-65
2023/03/07 13:55:32;;;;;;;13.90;7.90;;;8.70;63.30;;;;;;4921380;29;20519;-67
2023/03/07 13:58:27;;;;;;;16.53;7.90;;;8.70;63.20;;;;;;4923965;29;20463;-66
2023/03/07 14:01:03;;;;;;;17.63;8.37;;;8.80;63.00;;;;;;4919155;29;21056;-66
2023/03/07 14:03:43;;;;;;;15.27;8.77;;;8.80;62.90;;;;;;4920125;29;20545;-65